sensor_id;sensor_type;location;lat;lon;timestamp;pressure;altitude;pressure_sealevel;temperature;humidity
40946;BME280;55635;50.264;11.918;2023-05-01T00:01:54;95871.44;;;8.49;64.66
40946;BME280;55635;50.264;11.918;2023-05-01T00:04:35;95871.75;;;8.38;65.43
40946;BME280;55635;50.264;11.918;2023-05-01T00:07:16;95861.03;;;8.32;64.64
40946;BME280;55635;50.264;11.918;2023-05-01T00:09:58;95859.97;;;8.16;65.86
40946;BME280;55635;50.264;11.918;2023-05-01T00:12:39;95863.63;;;8.23;65.36
40946;BME280;55635;50.264;11.918;2023-05-01T00:15:44;95859.97;;;8.16;66.26
40946;BME280;55635;50.264;11.918;2023-05-01T00:18:26;95855.34;;;8.02;66.20
40946;BME280;55635;50.264;11.918;2023-05-01T00:21:09;95855.88;;;7.98;66.69
40946;BME280;55635;50.264;11.918;2023-05-01T00:23:50;95850.38;;;7.83;65.29
40946;BME280;55635;50.264;11.918;2023-05-01T00:26:31;95847.09;;;7.89;66.15
40946;BME280;55635;50.264;11.918;2023-05-01T00:29:13;95846.94;;;7.83;67.14
40946;BME280;55635;50.264;11.918;2023-05-01T00:31:54;95841.84;;;7.97;66.16
40946;BME280;55635;50.264;11.918;2023-05-01T00:34:35;95844.13;;;7.92;66.09
40946;BME280;55635;50.264;11.918;2023-05-01T00:37:16;95839.53;;;7.94;67.37
40946;BME280;55635;50.264;11.918;2023-05-01T00:39:57;95829.09;;;7.77;66.82
40946;BME280;55635;50.264;11.918;2023-05-01T00:42:38;95832.88;;;7.74;66.59
40946;BME280;55635;50.264;11.918;2023-05-01T00:45:20;95836.00;;;7.70;66.69
40946;BME280;55635;50.264;11.918;2023-05-01T00:48:03;95835.50;;;7.74;66.38
40946;BME280;55635;50.264;11.918;2023-05-01T00:50:45;95834.22;;;7.78;67.10
40946;BME280;55635;50.264;11.918;2023-05-01T00:53:27;95815.22;;;7.75;68.26
40946;BME280;55635;50.264;11.918;2023-05-01T00:56:09;95816.06;;;7.75;67.74
40946;BME280;55635;50.264;11.918;2023-05-01T00:58:51;95821.94;;;7.45;67.95
40946;BME280;55635;50.264;11.918;2023-05-01T01:01:33;95825.28;;;7.55;66.51
40946;BME280;55635;50.264;11.918;2023-05-01T01:04:15;95815.69;;;7.46;67.18
40946;BME280;55635;50.264;11.918;2023-05-01T01:13:27;95807.72;;;7.38;69.04
40946;BME280;55635;50.264;11.918;2023-05-01T01:24:02;95796.72;;;7.42;69.73
40946;BME280;55635;50.264;11.918;2023-05-01T01:35:56;95788.59;;;7.28;69.04
40946;BME280;55635;50.264;11.918;2023-05-01T01:38:45;95789.91;;;7.24;70.06
40946;BME280;55635;50.264;11.918;2023-05-01T01:41:33;95786.56;;;7.22;71.17
40946;BME280;55635;50.264;11.918;2023-05-01T01:44:36;95787.44;;;7.30;70.22
40946;BME280;55635;50.264;11.918;2023-05-01T01:47:18;95786.63;;;7.30;70.00
40946;BME280;55635;50.264;11.918;2023-05-01T01:50:04;95770.47;;;7.33;69.01
40946;BME280;55635;50.264;11.918;2023-05-01T01:52:48;95774.91;;;7.32;68.12
40946;BME280;55635;50.264;11.918;2023-05-01T01:55:32;95768.31;;;7.28;70.11
40946;BME280;55635;50.264;11.918;2023-05-01T01:58:20;95765.19;;;7.25;69.31
40946;BME280;55635;50.264;11.918;2023-05-01T02:01:06;95765.84;;;7.27;68.52
40946;BME280;55635;50.264;11.918;2023-05-01T02:03:48;95759.59;;;7.28;69.89
40946;BME280;55635;50.264;11.918;2023-05-01T02:06:30;95757.94;;;7.27;68.22
40946;BME280;55635;50.264;11.918;2023-05-01T02:09:16;95761.22;;;7.21;68.75
40946;BME280;55635;50.264;11.918;2023-05-01T02:11:59;95747.34;;;7.19;67.37
40946;BME280;55635;50.264;11.918;2023-05-01T02:14:43;95754.94;;;7.13;69.16
40946;BME280;55635;50.264;11.918;2023-05-01T02:17:27;95754.59;;;7.08;69.47
40946;BME280;55635;50.264;11.918;2023-05-01T02:20:10;95747.34;;;7.10;70.15
40946;BME280;55635;50.264;11.918;2023-05-01T02:22:55;95742.56;;;7.14;70.46
40946;BME280;55635;50.264;11.918;2023-05-01T02:25:38;95739.09;;;7.05;70.35
40946;BME280;55635;50.264;11.918;2023-05-01T02:28:22;95733.44;;;6.92;70.96
40946;BME280;55635;50.264;11.918;2023-05-01T02:31:04;95736.41;;;6.89;70.48
40946;BME280;55635;50.264;11.918;2023-05-01T02:33:48;95727.47;;;6.82;69.41
40946;BME280;55635;50.264;11.918;2023-05-01T02:36:29;95738.00;;;6.82;69.17
40946;BME280;55635;50.264;11.918;2023-05-01T02:39:11;95733.75;;;6.81;69.29
40946;BME280;55635;50.264;11.918;2023-05-01T02:41:54;95739.03;;;6.81;69.60
40946;BME280;55635;50.264;11.918;2023-05-01T02:44:42;95728.31;;;6.83;69.28
40946;BME280;55635;50.264;11.918;2023-05-01T02:47:27;95730.09;;;6.82;69.65
40946;BME280;55635;50.264;11.918;2023-05-01T02:50:09;95734.72;;;6.80;70.35
40946;BME280;55635;50.264;11.918;2023-05-01T02:52:50;95734.72;;;6.80;71.14
40946;BME280;55635;50.264;11.918;2023-05-01T02:55:52;95721.88;;;6.77;69.86
40946;BME280;55635;50.264;11.918;2023-05-01T02:58:34;95727.78;;;6.71;70.14
40946;BME280;55635;50.264;11.918;2023-05-01T03:01:16;95726.75;;;6.64;70.78
40946;BME280;55635;50.264;11.918;2023-05-01T03:03:58;95726.44;;;6.67;70.49
40946;BME280;55635;50.264;11.918;2023-05-01T03:06:40;95729.06;;;6.67;70.95
40946;BME280;55635;50.264;11.918;2023-05-01T03:09:21;95726.28;;;6.69;71.51
40946;BME280;55635;50.264;11.918;2023-05-01T03:12:04;95716.72;;;6.68;72.55
40946;BME280;55635;50.264;11.918;2023-05-01T03:14:45;95716.25;;;6.72;73.08
40946;BME280;55635;50.264;11.918;2023-05-01T03:17:27;95714.25;;;6.66;72.25
40946;BME280;55635;50.264;11.918;2023-05-01T03:20:08;95710.00;;;6.73;71.86
40946;BME280;55635;50.264;11.918;2023-05-01T03:22:50;95708.34;;;6.72;71.41
40946;BME280;55635;50.264;11.918;2023-05-01T03:25:31;95707.00;;;6.68;72.83
40946;BME280;55635;50.264;11.918;2023-05-01T03:28:12;95712.59;;;6.65;72.37
40946;BME280;55635;50.264;11.918;2023-05-01T03:30:56;95708.28;;;6.56;72.94
40946;BME280;55635;50.264;11.918;2023-05-01T03:33:37;95703.88;;;6.65;70.94
40946;BME280;55635;50.264;11.918;2023-05-01T03:36:20;95698.47;;;6.66;70.58
40946;BME280;55635;50.264;11.918;2023-05-01T03:39:11;95700.91;;;6.60;71.61
40946;BME280;55635;50.264;11.918;2023-05-01T03:42:10;95695.78;;;6.58;71.46
40946;BME280;55635;50.264;11.918;2023-05-01T03:44:55;95678.66;;;6.54;73.79
40946;BME280;55635;50.264;11.918;2023-05-01T03:47:37;95688.03;;;6.56;72.70
40946;BME280;55635;50.264;11.918;2023-05-01T03:50:20;95695.25;;;6.54;72.84
40946;BME280;55635;50.264;11.918;2023-05-01T03:53:05;95692.50;;;6.64;71.84
40946;BME280;55635;50.264;11.918;2023-05-01T03:55:45;95689.81;;;6.48;72.22
40946;BME280;55635;50.264;11.918;2023-05-01T03:58:27;95691.63;;;6.47;71.82
40946;BME280;55635;50.264;11.918;2023-05-01T04:01:09;95681.00;;;6.65;70.63
40946;BME280;55635;50.264;11.918;2023-05-01T04:03:55;95679.41;;;6.88;68.62
40946;BME280;55635;50.264;11.918;2023-05-01T04:06:37;95682.25;;;7.03;67.73
40946;BME280;55635;50.264;11.918;2023-05-01T04:09:19;95673.69;;;7.25;65.86
40946;BME280;55635;50.264;11.918;2023-05-01T04:12:00;95673.56;;;7.43;66.43
40946;BME280;55635;50.264;11.918;2023-05-01T04:14:42;95675.06;;;7.45;66.66
40946;BME280;55635;50.264;11.918;2023-05-01T04:17:27;95676.53;;;7.48;66.92
40946;BME280;55635;50.264;11.918;2023-05-01T04:20:08;95672.06;;;7.40;67.09
40946;BME280;55635;50.264;11.918;2023-05-01T04:22:50;95669.59;;;7.47;66.07
40946;BME280;55635;50.264;11.918;2023-05-01T04:25:35;95676.38;;;7.57;66.10
40946;BME280;55635;50.264;11.918;2023-05-01T04:28:21;95681.13;;;7.78;64.93
40946;BME280;55635;50.264;11.918;2023-05-01T04:31:04;95680.47;;;7.84;64.62
40946;BME280;55635;50.264;11.918;2023-05-01T04:33:45;95675.84;;;7.94;65.45
40946;BME280;55635;50.264;11.918;2023-05-01T04:36:27;95677.34;;;7.89;65.05
40946;BME280;55635;50.264;11.918;2023-05-01T04:39:09;95670.56;;;7.94;65.62
40946;BME280;55635;50.264;11.918;2023-05-01T04:41:52;95674.22;;;7.85;65.80
40946;BME280;55635;50.264;11.918;2023-05-01T04:44:34;95675.66;;;7.96;65.94
40946;BME280;55635;50.264;11.918;2023-05-01T04:47:19;95676.34;;;7.98;66.38
40946;BME280;55635;50.264;11.918;2023-05-01T04:50:00;95677.47;;;7.95;66.11
40946;BME280;55635;50.264;11.918;2023-05-01T04:52:42;95677.50;;;7.87;66.70
40946;BME280;55635;50.264;11.918;2023-05-01T04:55:23;95676.34;;;7.98;65.60
40946;BME280;55635;50.264;11.918;2023-05-01T04:58:18;95668.09;;;8.01;65.50
40946;BME280;55635;50.264;11.918;2023-05-01T05:01:03;95667.53;;;8.13;64.35
40946;BME280;55635;50.264;11.918;2023-05-01T05:03:45;95667.72;;;8.28;63.16
40946;BME280;55635;50.264;11.918;2023-05-01T05:06:28;95666.16;;;8.42;62.22
40946;BME280;55635;50.264;11.918;2023-05-01T05:09:09;95654.91;;;8.48;61.35
40946;BME280;55635;50.264;11.918;2023-05-01T05:11:50;95663.44;;;8.66;61.74
40946;BME280;55635;50.264;11.918;2023-05-01T05:14:35;95645.59;;;8.68;62.98
40946;BME280;55635;50.264;11.918;2023-05-01T05:17:16;95655.06;;;8.85;63.47
40946;BME280;55635;50.264;11.918;2023-05-01T05:19:57;95652.72;;;8.90;64.57
40946;BME280;55635;50.264;11.918;2023-05-01T05:22:38;95661.19;;;8.86;62.73
40946;BME280;55635;50.264;11.918;2023-05-01T05:25:35;95658.34;;;8.95;59.86
40946;BME280;55635;50.264;11.918;2023-05-01T05:28:16;95655.34;;;9.21;60.80
40946;BME280;55635;50.264;11.918;2023-05-01T05:30:58;95653.69;;;9.43;60.52
40946;BME280;55635;50.264;11.918;2023-05-01T05:33:40;95648.28;;;9.59;60.62
40946;BME280;55635;50.264;11.918;2023-05-01T05:36:22;95653.81;;;9.72;60.74
40946;BME280;55635;50.264;11.918;2023-05-01T05:39:04;95651.09;;;9.80;60.64
40946;BME280;55635;50.264;11.918;2023-05-01T05:41:47;95649.16;;;9.89;60.47
40946;BME280;55635;50.264;11.918;2023-05-01T05:44:32;95646.16;;;10.14;60.32
40946;BME280;55635;50.264;11.918;2023-05-01T05:47:16;95655.00;;;10.21;59.55
40946;BME280;55635;50.264;11.918;2023-05-01T05:49:57;95642.75;;;10.35;58.53
40946;BME280;55635;50.264;11.918;2023-05-01T05:52:38;95636.19;;;10.46;58.01
40946;BME280;55635;50.264;11.918;2023-05-01T05:55:20;95640.44;;;10.61;57.61
40946;BME280;55635;50.264;11.918;2023-05-01T05:58:14;95635.28;;;10.89;55.99
40946;BME280;55635;50.264;11.918;2023-05-01T06:01:03;95639.38;;;11.06;56.37
40946;BME280;55635;50.264;11.918;2023-05-01T06:03:48;95637.56;;;11.28;55.70
40946;BME280;55635;50.264;11.918;2023-05-01T06:06:30;95629.84;;;11.12;55.61
40946;BME280;55635;50.264;11.918;2023-05-01T06:09:12;95632.88;;;11.30;55.47
40946;BME280;55635;50.264;11.918;2023-05-01T06:11:54;95627.75;;;11.28;54.37
40946;BME280;55635;50.264;11.918;2023-05-01T06:14:35;95631.94;;;11.59;54.95
40946;BME280;55635;50.264;11.918;2023-05-01T06:17:16;95624.44;;;11.69;54.00
40946;BME280;55635;50.264;11.918;2023-05-01T06:19:58;95631.97;;;11.86;53.89
40946;BME280;55635;50.264;11.918;2023-05-01T06:22:39;95623.91;;;12.70;53.41
40946;BME280;55635;50.264;11.918;2023-05-01T06:25:28;95611.34;;;12.98;52.14
40946;BME280;55635;50.264;11.918;2023-05-01T06:28:09;95619.91;;;13.74;49.77
40946;BME280;55635;50.264;11.918;2023-05-01T06:30:51;95612.94;;;14.05;50.52
40946;BME280;55635;50.264;11.918;2023-05-01T06:33:33;95610.81;;;14.60;49.68
40946;BME280;55635;50.264;11.918;2023-05-01T06:36:29;95605.16;;;13.78;49.72
40946;BME280;55635;50.264;11.918;2023-05-01T06:39:11;95610.69;;;13.83;48.96
40946;BME280;55635;50.264;11.918;2023-05-01T06:41:51;95618.69;;;13.89;48.66
40946;BME280;55635;50.264;11.918;2023-05-01T06:44:44;95605.72;;;15.03;47.52
40946;BME280;55635;50.264;11.918;2023-05-01T06:47:25;95604.69;;;15.04;46.69
40946;BME280;55635;50.264;11.918;2023-05-01T06:50:07;95601.50;;;15.89;44.67
40946;BME280;55635;50.264;11.918;2023-05-01T06:53:08;95596.91;;;14.96;48.83
40946;BME280;55635;50.264;11.918;2023-05-01T06:55:49;95583.31;;;15.73;47.28
40946;BME280;55635;50.264;11.918;2023-05-01T06:58:30;95586.31;;;14.83;45.89
40946;BME280;55635;50.264;11.918;2023-05-01T07:01:11;95584.81;;;15.31;46.86
40946;BME280;55635;50.264;11.918;2023-05-01T07:03:53;95581.34;;;15.87;45.68
40946;BME280;55635;50.264;11.918;2023-05-01T07:06:37;95572.72;;;14.84;46.03
40946;BME280;55635;50.264;11.918;2023-05-01T07:09:19;95575.84;;;15.19;45.15
40946;BME280;55635;50.264;11.918;2023-05-01T07:12:01;95578.53;;;14.68;46.09
40946;BME280;55635;50.264;11.918;2023-05-01T07:14:45;95585.88;;;13.82;48.75
40946;BME280;55635;50.264;11.918;2023-05-01T07:17:26;95578.28;;;13.92;49.66
40946;BME280;55635;50.264;11.918;2023-05-01T07:20:08;95581.59;;;13.81;49.53
40946;BME280;55635;50.264;11.918;2023-05-01T07:22:53;95582.78;;;14.05;50.23
40946;BME280;55635;50.264;11.918;2023-05-01T07:25:36;95570.81;;;15.29;48.73
40946;BME280;55635;50.264;11.918;2023-05-01T07:28:17;95567.53;;;14.51;47.52
40946;BME280;55635;50.264;11.918;2023-05-01T07:31:00;95560.59;;;14.88;49.55
40946;BME280;55635;50.264;11.918;2023-05-01T07:33:41;95554.03;;;14.33;47.19
40946;BME280;55635;50.264;11.918;2023-05-01T07:36:22;95543.09;;;14.92;45.75
40946;BME280;55635;50.264;11.918;2023-05-01T07:39:03;95543.41;;;15.15;46.51
40946;BME280;55635;50.264;11.918;2023-05-01T07:41:45;95542.59;;;15.96;45.89
40946;BME280;55635;50.264;11.918;2023-05-01T07:44:50;95546.75;;;15.67;48.16
40946;BME280;55635;50.264;11.918;2023-05-01T07:47:31;95548.78;;;15.40;47.11
40946;BME280;55635;50.264;11.918;2023-05-01T07:50:13;95541.66;;;15.27;48.18
40946;BME280;55635;50.264;11.918;2023-05-01T07:52:54;95532.06;;;16.37;44.61
40946;BME280;55635;50.264;11.918;2023-05-01T07:55:35;95542.13;;;15.81;48.01
40946;BME280;55635;50.264;11.918;2023-05-01T07:58:15;95534.69;;;15.83;45.73
40946;BME280;55635;50.264;11.918;2023-05-01T08:01:00;95532.56;;;15.66;47.50
40946;BME280;55635;50.264;11.918;2023-05-01T08:03:47;95515.69;;;16.09;47.51
40946;BME280;55635;50.264;11.918;2023-05-01T08:06:29;95520.03;;;16.10;45.25
40946;BME280;55635;50.264;11.918;2023-05-01T08:09:11;95515.38;;;15.81;46.52
40946;BME280;55635;50.264;11.918;2023-05-01T08:11:52;95524.72;;;15.40;48.56
40946;BME280;55635;50.264;11.918;2023-05-01T08:14:33;95526.63;;;15.02;48.34
40946;BME280;55635;50.264;11.918;2023-05-01T08:17:13;95510.63;;;15.83;46.10
40946;BME280;55635;50.264;11.918;2023-05-01T08:19:59;95522.34;;;15.82;47.42
40946;BME280;55635;50.264;11.918;2023-05-01T08:22:40;95516.16;;;16.06;47.79
40946;BME280;55635;50.264;11.918;2023-05-01T08:25:21;95517.91;;;16.55;46.22
40946;BME280;55635;50.264;11.918;2023-05-01T08:28:04;95520.75;;;15.99;46.05
40946;BME280;55635;50.264;11.918;2023-05-01T08:30:45;95524.09;;;15.38;45.78
40946;BME280;55635;50.264;11.918;2023-05-01T08:33:26;95525.25;;;15.24;47.77
40946;BME280;55635;50.264;11.918;2023-05-01T08:36:09;95522.75;;;15.29;47.81
40946;BME280;55635;50.264;11.918;2023-05-01T08:38:50;95514.69;;;16.64;48.06
40946;BME280;55635;50.264;11.918;2023-05-01T08:41:31;95500.63;;;17.40;46.50
40946;BME280;55635;50.264;11.918;2023-05-01T08:44:14;95508.81;;;16.74;46.19
40946;BME280;55635;50.264;11.918;2023-05-01T08:47:11;95513.28;;;16.44;44.92
40946;BME280;55635;50.264;11.918;2023-05-01T08:49:57;95508.22;;;17.02;43.48
40946;BME280;55635;50.264;11.918;2023-05-01T08:52:42;95515.84;;;16.86;43.74
40946;BME280;55635;50.264;11.918;2023-05-01T08:55:25;95503.78;;;18.13;44.25
40946;BME280;55635;50.264;11.918;2023-05-01T08:58:08;95497.06;;;18.51;41.01
40946;BME280;55635;50.264;11.918;2023-05-01T09:00:52;95502.47;;;18.16;41.53
40946;BME280;55635;50.264;11.918;2023-05-01T09:03:36;95508.41;;;18.92;41.33
40946;BME280;55635;50.264;11.918;2023-05-01T09:06:17;95504.81;;;18.75;41.45
40946;BME280;55635;50.264;11.918;2023-05-01T09:09:00;95502.50;;;19.52;40.97
40946;BME280;55635;50.264;11.918;2023-05-01T09:11:44;95501.88;;;19.33;40.14
40946;BME280;55635;50.264;11.918;2023-05-01T09:14:25;95500.56;;;18.51;41.08
40946;BME280;55635;50.264;11.918;2023-05-01T09:17:07;95497.06;;;19.64;41.33
40946;BME280;55635;50.264;11.918;2023-05-01T09:19:49;95496.03;;;19.36;38.63
40946;BME280;55635;50.264;11.918;2023-05-01T09:22:32;95494.19;;;19.09;36.55
40946;BME280;55635;50.264;11.918;2023-05-01T09:25:14;95492.69;;;19.29;38.82
40946;BME280;55635;50.264;11.918;2023-05-01T09:27:55;95490.38;;;19.21;38.65
40946;BME280;55635;50.264;11.918;2023-05-01T09:30:38;95475.03;;;18.25;42.34
40946;BME280;55635;50.264;11.918;2023-05-01T09:33:19;95478.84;;;18.92;39.31
40946;BME280;55635;50.264;11.918;2023-05-01T09:36:00;95474.78;;;19.35;41.05
40946;BME280;55635;50.264;11.918;2023-05-01T09:38:42;95467.03;;;18.93;41.83
40946;BME280;55635;50.264;11.918;2023-05-01T09:41:23;95483.38;;;19.65;39.99
40946;BME280;55635;50.264;11.918;2023-05-01T09:44:04;95482.72;;;19.13;39.97
40946;BME280;55635;50.264;11.918;2023-05-01T09:46:56;95471.84;;;18.52;40.69
40946;BME280;55635;50.264;11.918;2023-05-01T09:49:45;95465.97;;;17.80;41.39
40946;BME280;55635;50.264;11.918;2023-05-01T09:52:28;95470.50;;;17.68;41.17
40946;BME280;55635;50.264;11.918;2023-05-01T09:55:15;95460.41;;;16.75;44.47
40946;BME280;55635;50.264;11.918;2023-05-01T09:57:57;95456.94;;;17.39;41.64
40946;BME280;55635;50.264;11.918;2023-05-01T10:00:48;95455.16;;;18.78;40.09
40946;BME280;55635;50.264;11.918;2023-05-01T10:03:29;95455.72;;;18.91;39.12
40946;BME280;55635;50.264;11.918;2023-05-01T10:06:11;95453.53;;;19.50;39.01
40946;BME280;55635;50.264;11.918;2023-05-01T10:08:52;95447.16;;;19.89;37.36
40946;BME280;55635;50.264;11.918;2023-05-01T10:11:51;95444.34;;;20.01;36.07
40946;BME280;55635;50.264;11.918;2023-05-01T10:14:33;95434.84;;;19.93;37.14
40946;BME280;55635;50.264;11.918;2023-05-01T10:17:29;95433.88;;;20.21;39.09
40946;BME280;55635;50.264;11.918;2023-05-01T10:20:35;95442.22;;;20.63;35.58
40946;BME280;55635;50.264;11.918;2023-05-01T10:23:16;95440.72;;;20.72;34.41
40946;BME280;55635;50.264;11.918;2023-05-01T10:26:00;95428.66;;;21.28;35.30
40946;BME280;55635;50.264;11.918;2023-05-01T10:28:45;95436.44;;;21.25;35.71
40946;BME280;55635;50.264;11.918;2023-05-01T10:31:27;95431.44;;;20.85;38.36
40946;BME280;55635;50.264;11.918;2023-05-01T10:34:15;95445.56;;;18.65;41.04
40946;BME280;55635;50.264;11.918;2023-05-01T10:37:25;95439.47;;;18.07;42.27
40946;BME280;55635;50.264;11.918;2023-05-01T10:40:50;95430.75;;;19.24;38.69
40946;BME280;55635;50.264;11.918;2023-05-01T10:43:31;95423.00;;;20.54;37.30
40946;BME280;55635;50.264;11.918;2023-05-01T10:49:01;95390.06;;;20.09;37.21
40946;BME280;55635;50.264;11.918;2023-05-01T10:51:58;95403.38;;;19.77;38.99
40946;BME280;55635;50.264;11.918;2023-05-01T10:54:40;95388.59;;;20.88;37.06
40946;BME280;55635;50.264;11.918;2023-05-01T10:57:41;95391.00;;;21.11;39.68
40946;BME280;55635;50.264;11.918;2023-05-01T11:00:23;95384.66;;;21.01;38.33
40946;BME280;55635;50.264;11.918;2023-05-01T11:06:04;95373.50;;;21.51;37.12
40946;BME280;55635;50.264;11.918;2023-05-01T11:08:45;95376.00;;;20.67;40.26
40946;BME280;55635;50.264;11.918;2023-05-01T11:14:11;95364.72;;;21.02;35.15
40946;BME280;55635;50.264;11.918;2023-05-01T11:16:52;95372.03;;;22.17;36.84
40946;BME280;55635;50.264;11.918;2023-05-01T11:19:45;95362.69;;;22.45;37.82
40946;BME280;55635;50.264;11.918;2023-05-01T11:22:28;95369.88;;;22.81;34.20
40946;BME280;55635;50.264;11.918;2023-05-01T11:25:24;95361.91;;;22.44;34.52
40946;BME280;55635;50.264;11.918;2023-05-01T11:28:06;95357.09;;;21.99;34.73
40946;BME280;55635;50.264;11.918;2023-05-01T11:30:49;95343.06;;;21.55;36.58
40946;BME280;55635;50.264;11.918;2023-05-01T11:33:32;95345.25;;;22.83;36.66
40946;BME280;55635;50.264;11.918;2023-05-01T11:36:13;95336.28;;;23.93;33.45
40946;BME280;55635;50.264;11.918;2023-05-01T11:38:58;95335.53;;;23.72;33.32
40946;BME280;55635;50.264;11.918;2023-05-01T11:41:42;95328.53;;;23.51;32.57
40946;BME280;55635;50.264;11.918;2023-05-01T11:44:23;95329.25;;;23.87;31.55
40946;BME280;55635;50.264;11.918;2023-05-01T11:47:04;95322.19;;;23.96;32.11
40946;BME280;55635;50.264;11.918;2023-05-01T11:49:51;95327.28;;;24.08;31.43
40946;BME280;55635;50.264;11.918;2023-05-01T11:52:45;95335.41;;;22.51;33.92
40946;BME280;55635;50.264;11.918;2023-05-01T11:55:32;95331.97;;;21.99;36.54
40946;BME280;55635;50.264;11.918;2023-05-01T11:58:13;95324.78;;;20.40;37.96
40946;BME280;55635;50.264;11.918;2023-05-01T12:00:55;95329.84;;;20.37;38.45
40946;BME280;55635;50.264;11.918;2023-05-01T12:03:42;95317.13;;;20.27;37.45
40946;BME280;55635;50.264;11.918;2023-05-01T12:06:37;95311.97;;;20.79;36.59
40946;BME280;55635;50.264;11.918;2023-05-01T12:09:24;95308.22;;;20.53;36.40
40946;BME280;55635;50.264;11.918;2023-05-01T12:12:07;95315.44;;;20.48;36.06
40946;BME280;55635;50.264;11.918;2023-05-01T12:14:48;95313.06;;;20.83;35.60
40946;BME280;55635;50.264;11.918;2023-05-01T12:17:29;95316.13;;;19.73;36.59
40946;BME280;55635;50.264;11.918;2023-05-01T12:20:11;95316.00;;;19.85;35.91
40946;BME280;55635;50.264;11.918;2023-05-01T12:22:52;95312.13;;;19.37;38.40
40946;BME280;55635;50.264;11.918;2023-05-01T12:25:33;95316.72;;;19.03;40.13
40946;BME280;55635;50.264;11.918;2023-05-01T12:28:17;95313.78;;;19.22;40.60
40946;BME280;55635;50.264;11.918;2023-05-01T12:31:02;95317.34;;;19.82;43.27
40946;BME280;55635;50.264;11.918;2023-05-01T12:33:55;95314.72;;;19.49;41.05
40946;BME280;55635;50.264;11.918;2023-05-01T12:37:04;95304.31;;;19.74;38.98
40946;BME280;55635;50.264;11.918;2023-05-01T12:39:47;95301.31;;;20.36;38.56
40946;BME280;55635;50.264;11.918;2023-05-01T12:42:28;95303.97;;;20.57;38.51
40946;BME280;55635;50.264;11.918;2023-05-01T12:45:09;95299.84;;;21.08;39.40
40946;BME280;55635;50.264;11.918;2023-05-01T12:47:54;95291.22;;;21.53;36.43
40946;BME280;55635;50.264;11.918;2023-05-01T12:50:36;95303.28;;;21.41;35.50
40946;BME280;55635;50.264;11.918;2023-05-01T12:53:17;95285.38;;;21.66;35.73
40946;BME280;55635;50.264;11.918;2023-05-01T12:55:59;95287.41;;;21.91;35.40
40946;BME280;55635;50.264;11.918;2023-05-01T12:58:40;95288.56;;;21.58;36.72
40946;BME280;55635;50.264;11.918;2023-05-01T13:01:26;95289.25;;;20.70;39.65
40946;BME280;55635;50.264;11.918;2023-05-01T13:04:07;95293.72;;;21.18;35.58
40946;BME280;55635;50.264;11.918;2023-05-01T13:06:54;95281.72;;;20.72;37.04
40946;BME280;55635;50.264;11.918;2023-05-01T13:09:36;95291.19;;;19.78;40.89
40946;BME280;55635;50.264;11.918;2023-05-01T13:12:17;95286.97;;;19.43;39.31
40946;BME280;55635;50.264;11.918;2023-05-01T13:14:59;95283.97;;;18.73;40.01
40946;BME280;55635;50.264;11.918;2023-05-01T13:17:40;95280.31;;;18.79;41.59
40946;BME280;55635;50.264;11.918;2023-05-01T13:20:25;95287.09;;;18.37;43.10
40946;BME280;55635;50.264;11.918;2023-05-01T13:23:11;95265.75;;;18.75;41.94
40946;BME280;55635;50.264;11.918;2023-05-01T13:25:55;95290.75;;;18.47;39.70
40946;BME280;55635;50.264;11.918;2023-05-01T13:28:43;95276.72;;;18.57;41.44
40946;BME280;55635;50.264;11.918;2023-05-01T13:31:30;95280.72;;;18.55;40.75
40946;BME280;55635;50.264;11.918;2023-05-01T13:34:16;95280.41;;;18.84;42.00
40946;BME280;55635;50.264;11.918;2023-05-01T13:37:02;95278.47;;;19.35;42.19
40946;BME280;55635;50.264;11.918;2023-05-01T13:39:44;95277.84;;;19.28;39.39
40946;BME280;55635;50.264;11.918;2023-05-01T13:42:26;95277.78;;;18.73;40.19
40946;BME280;55635;50.264;11.918;2023-05-01T13:45:07;95272.50;;;18.33;41.79
40946;BME280;55635;50.264;11.918;2023-05-01T13:47:49;95288.03;;;18.59;43.61
40946;BME280;55635;50.264;11.918;2023-05-01T13:50:33;95290.19;;;18.01;43.42
40946;BME280;55635;50.264;11.918;2023-05-01T13:53:14;95282.84;;;18.24;43.15
40946;BME280;55635;50.264;11.918;2023-05-01T13:55:55;95278.63;;;18.45;42.75
40946;BME280;55635;50.264;11.918;2023-05-01T13:58:37;95272.72;;;17.86;43.80
40946;BME280;55635;50.264;11.918;2023-05-01T14:01:20;95271.00;;;18.09;45.03
40946;BME280;55635;50.264;11.918;2023-05-01T14:04:08;95271.41;;;18.01;44.68
40946;BME280;55635;50.264;11.918;2023-05-01T14:06:53;95277.16;;;17.81;45.99
40946;BME280;55635;50.264;11.918;2023-05-01T14:09:34;95275.47;;;17.40;44.66
40946;BME280;55635;50.264;11.918;2023-05-01T14:12:17;95274.81;;;17.33;46.48
40946;BME280;55635;50.264;11.918;2023-05-01T14:14:59;95278.38;;;17.62;46.74
40946;BME280;55635;50.264;11.918;2023-05-01T14:17:41;95279.00;;;17.29;49.99
40946;BME280;55635;50.264;11.918;2023-05-01T14:20:24;95282.97;;;17.15;45.02
40946;BME280;55635;50.264;11.918;2023-05-01T14:23:05;95278.09;;;17.12;47.69
40946;BME280;55635;50.264;11.918;2023-05-01T14:25:48;95278.75;;;17.19;47.21
40946;BME280;55635;50.264;11.918;2023-05-01T14:28:29;95279.34;;;16.98;48.42
40946;BME280;55635;50.264;11.918;2023-05-01T14:31:25;95269.69;;;16.85;47.69
40946;BME280;55635;50.264;11.918;2023-05-01T14:34:06;95272.13;;;16.86;49.28
40946;BME280;55635;50.264;11.918;2023-05-01T14:36:48;95275.84;;;16.97;48.33
40946;BME280;55635;50.264;11.918;2023-05-01T14:39:31;95269.16;;;17.46;49.84
40946;BME280;55635;50.264;11.918;2023-05-01T14:42:13;95264.75;;;17.63;48.27
40946;BME280;55635;50.264;11.918;2023-05-01T14:44:54;95277.03;;;16.90;49.49
40946;BME280;55635;50.264;11.918;2023-05-01T14:47:38;95288.06;;;15.69;54.75
40946;BME280;55635;50.264;11.918;2023-05-01T14:50:22;95294.06;;;15.46;54.98
40946;BME280;55635;50.264;11.918;2023-05-01T14:53:03;95294.50;;;15.79;56.63